sensor_id;sensor_type;location;lat;lon;timestamp;P1;durP1;ratioP1;P2;durP2;ratioP2
20699;SDS011;10511;51.232;9.420;2022-09-29T00:00:51;1.00;;;1.00;;
20699;SDS011;10511;51.232;9.420;2022-09-29T00:03:19;1.00;;;1.00;;
20699;SDS011;10511;51.232;9.420;2022-09-29T00:05:48;1.00;;;1.00;;
20699;SDS011;10511;51.232;9.420;2022-09-29T00:08:16;1.00;;;1.00;;
20699;SDS011;10511;51.232;9.420;2022-09-29T00:10:46;1.10;;;1.10;;
20699;SDS011;10511;51.232;9.420;2022-09-29T00:13:13;1.07;;;1.07;;
20699;SDS011;10511;51.232;9.420;2022-09-29T00:15:41;1.10;;;1.10;;
20699;SDS011;10511;51.232;9.420;2022-09-29T00:18:09;1.10;;;1.10;;
20699;SDS011;10511;51.232;9.420;2022-09-29T00:20:37;1.10;;;1.10;;
20699;SDS011;10511;51.232;9.420;2022-09-29T00:23:04;1.10;;;1.10;;
20699;SDS011;10511;51.232;9.420;2022-09-29T00:25:31;1.10;;;1.10;;
20699;SDS011;10511;51.232;9.420;2022-09-29T00:28:00;1.20;;;1.20;;
20699;SDS011;10511;51.232;9.420;2022-09-29T00:30:27;1.10;;;1.10;;
20699;SDS011;10511;51.232;9.420;2022-09-29T00:32:54;1.00;;;1.00;;
20699;SDS011;10511;51.232;9.420;2022-09-29T00:35:22;1.10;;;1.10;;
20699;SDS011;10511;51.232;9.420;2022-09-29T00:37:49;1.10;;;1.10;;
20699;SDS011;10511;51.232;9.420;2022-09-29T00:40:16;1.17;;;1.17;;
20699;SDS011;10511;51.232;9.420;2022-09-29T00:42:43;1.10;;;1.10;;
20699;SDS011;10511;51.232;9.420;2022-09-29T00:45:16;1.10;;;1.10;;
20699;SDS011;10511;51.232;9.420;2022-09-29T00:47:46;1.07;;;1.07;;
20699;SDS011;10511;51.232;9.420;2022-09-29T00:50:19;1.20;;;1.20;;
20699;SDS011;10511;51.232;9.420;2022-09-29T00:52:52;1.13;;;1.13;;
20699;SDS011;10511;51.232;9.420;2022-09-29T00:55:22;1.10;;;1.10;;
20699;SDS011;10511;51.232;9.420;2022-09-29T00:57:54;1.20;;;1.20;;
20699;SDS011;10511;51.232;9.420;2022-09-29T01:00:29;1.10;;;1.10;;
20699;SDS011;10511;51.232;9.420;2022-09-29T01:02:56;1.00;;;1.00;;
20699;SDS011;10511;51.232;9.420;2022-09-29T01:05:29;1.07;;;1.07;;
20699;SDS011;10511;51.232;9.420;2022-09-29T01:08:00;1.00;;;1.00;;
20699;SDS011;10511;51.232;9.420;2022-09-29T01:10:34;1.00;;;1.00;;
20699;SDS011;10511;51.232;9.420;2022-09-29T01:13:02;1.00;;;1.00;;
20699;SDS011;10511;51.232;9.420;2022-09-29T01:15:31;1.10;;;1.10;;
20699;SDS011;10511;51.232;9.420;2022-09-29T01:17:58;1.00;;;1.00;;
20699;SDS011;10511;51.232;9.420;2022-09-29T01:20:25;1.10;;;1.10;;
20699;SDS011;10511;51.232;9.420;2022-09-29T01:29:19;1.00;;;1.00;;
20699;SDS011;10511;51.232;9.420;2022-09-29T01:32:14;1.00;;;1.00;;
20699;SDS011;10511;51.232;9.420;2022-09-29T01:34:47;1.00;;;1.00;;
20699;SDS011;10511;51.232;9.420;2022-09-29T01:37:26;1.00;;;1.00;;
20699;SDS011;10511;51.232;9.420;2022-09-29T01:40:05;1.00;;;1.00;;
20699;SDS011;10511;51.232;9.420;2022-09-29T01:42:37;1.00;;;1.00;;
20699;SDS011;10511;51.232;9.420;2022-09-29T01:45:12;1.00;;;1.00;;
20699;SDS011;10511;51.232;9.420;2022-09-29T01:47:46;1.00;;;1.00;;
20699;SDS011;10511;51.232;9.420;2022-09-29T01:50:19;1.00;;;1.00;;
20699;SDS011;10511;51.232;9.420;2022-09-29T01:52:50;1.00;;;1.00;;
20699;SDS011;10511;51.232;9.420;2022-09-29T01:55:23;1.00;;;1.00;;
20699;SDS011;10511;51.232;9.420;2022-09-29T01:57:54;0.90;;;0.90;;
20699;SDS011;10511;51.232;9.420;2022-09-29T02:00:25;1.00;;;1.00;;
20699;SDS011;10511;51.232;9.420;2022-09-29T02:02:57;0.90;;;0.90;;
20699;SDS011;10511;51.232;9.420;2022-09-29T02:05:32;0.90;;;0.90;;
20699;SDS011;10511;51.232;9.420;2022-09-29T02:08:05;1.00;;;1.00;;
20699;SDS011;10511;51.232;9.420;2022-09-29T02:10:36;0.90;;;0.90;;
20699;SDS011;10511;51.232;9.420;2022-09-29T02:13:07;0.90;;;0.90;;
20699;SDS011;10511;51.232;9.420;2022-09-29T02:15:37;1.00;;;1.00;;
20699;SDS011;10511;51.232;9.420;2022-09-29T02:18:11;0.90;;;0.90;;
20699;SDS011;10511;51.232;9.420;2022-09-29T02:20:41;0.90;;;0.90;;
20699;SDS011;10511;51.232;9.420;2022-09-29T02:23:08;1.00;;;1.00;;
20699;SDS011;10511;51.232;9.420;2022-09-29T02:25:36;1.07;;;1.07;;
20699;SDS011;10511;51.232;9.420;2022-09-29T02:28:05;1.00;;;1.00;;
20699;SDS011;10511;51.232;9.420;2022-09-29T02:30:33;0.90;;;0.90;;
20699;SDS011;10511;51.232;9.420;2022-09-29T02:33:01;1.00;;;1.00;;
20699;SDS011;10511;51.232;9.420;2022-09-29T02:35:31;0.90;;;0.90;;
20699;SDS011;10511;51.232;9.420;2022-09-29T02:38:08;1.07;;;1.07;;
20699;SDS011;10511;51.232;9.420;2022-09-29T02:40:42;0.90;;;0.90;;
20699;SDS011;10511;51.232;9.420;2022-09-29T02:43:20;1.00;;;1.00;;
20699;SDS011;10511;51.232;9.420;2022-09-29T02:46:00;1.00;;;1.00;;
20699;SDS011;10511;51.232;9.420;2022-09-29T02:51:35;0.90;;;0.90;;
20699;SDS011;10511;51.232;9.420;2022-09-29T02:56:58;0.93;;;0.93;;
20699;SDS011;10511;51.232;9.420;2022-09-29T02:59:34;1.10;;;1.10;;
20699;SDS011;10511;51.232;9.420;2022-09-29T03:02:07;0.90;;;0.90;;
20699;SDS011;10511;51.232;9.420;2022-09-29T03:04:34;1.00;;;1.00;;
20699;SDS011;10511;51.232;9.420;2022-09-29T03:07:03;1.00;;;1.00;;
20699;SDS011;10511;51.232;9.420;2022-09-29T03:09:30;1.00;;;1.00;;
20699;SDS011;10511;51.232;9.420;2022-09-29T03:11:57;1.00;;;1.00;;
20699;SDS011;10511;51.232;9.420;2022-09-29T03:14:24;1.00;;;1.00;;
20699;SDS011;10511;51.232;9.420;2022-09-29T03:16:51;1.10;;;1.10;;
20699;SDS011;10511;51.232;9.420;2022-09-29T03:19:18;1.00;;;1.00;;
20699;SDS011;10511;51.232;9.420;2022-09-29T03:21:45;1.00;;;1.00;;
20699;SDS011;10511;51.232;9.420;2022-09-29T03:24:13;1.00;;;1.00;;
20699;SDS011;10511;51.232;9.420;2022-09-29T03:26:40;1.13;;;1.13;;
20699;SDS011;10511;51.232;9.420;2022-09-29T03:29:07;1.17;;;1.17;;
20699;SDS011;10511;51.232;9.420;2022-09-29T03:31:34;1.10;;;1.10;;
20699;SDS011;10511;51.232;9.420;2022-09-29T03:34:01;1.00;;;1.00;;
20699;SDS011;10511;51.232;9.420;2022-09-29T03:36:28;1.00;;;1.00;;
20699;SDS011;10511;51.232;9.420;2022-09-29T03:38:55;1.00;;;1.00;;
20699;SDS011;10511;51.232;9.420;2022-09-29T03:41:24;1.00;;;1.00;;
20699;SDS011;10511;51.232;9.420;2022-09-29T03:43:51;1.00;;;1.00;;
20699;SDS011;10511;51.232;9.420;2022-09-29T03:46:18;0.90;;;0.90;;
20699;SDS011;10511;51.232;9.420;2022-09-29T03:48:45;1.00;;;1.00;;
20699;SDS011;10511;51.232;9.420;2022-09-29T03:51:12;1.07;;;1.07;;
20699;SDS011;10511;51.232;9.420;2022-09-29T03:53:39;1.00;;;1.00;;
20699;SDS011;10511;51.232;9.420;2022-09-29T03:56:05;1.00;;;1.00;;
20699;SDS011;10511;51.232;9.420;2022-09-29T03:58:34;0.90;;;0.90;;
20699;SDS011;10511;51.232;9.420;2022-09-29T04:01:01;1.03;;;1.03;;
20699;SDS011;10511;51.232;9.420;2022-09-29T04:03:28;1.10;;;1.10;;
20699;SDS011;10511;51.232;9.420;2022-09-29T04:05:55;1.10;;;1.10;;
20699;SDS011;10511;51.232;9.420;2022-09-29T04:08:22;1.00;;;1.00;;
20699;SDS011;10511;51.232;9.420;2022-09-29T04:10:49;1.00;;;1.00;;
20699;SDS011;10511;51.232;9.420;2022-09-29T04:13:16;1.00;;;1.00;;
20699;SDS011;10511;51.232;9.420;2022-09-29T04:15:44;0.90;;;0.90;;
20699;SDS011;10511;51.232;9.420;2022-09-29T04:18:11;1.00;;;1.00;;
20699;SDS011;10511;51.232;9.420;2022-09-29T04:20:38;1.00;;;1.00;;
20699;SDS011;10511;51.232;9.420;2022-09-29T04:23:05;1.00;;;1.00;;
20699;SDS011;10511;51.232;9.420;2022-09-29T04:25:32;1.00;;;1.00;;
20699;SDS011;10511;51.232;9.420;2022-09-29T04:28:00;1.10;;;1.10;;
20699;SDS011;10511;51.232;9.420;2022-09-29T04:30:27;1.20;;;1.20;;
20699;SDS011;10511;51.232;9.420;2022-09-29T04:32:55;1.00;;;1.00;;
20699;SDS011;10511;51.232;9.420;2022-09-29T04:35:22;1.10;;;1.10;;
20699;SDS011;10511;51.232;9.420;2022-09-29T04:37:49;1.10;;;1.10;;
20699;SDS011;10511;51.232;9.420;2022-09-29T04:40:21;1.10;;;1.10;;
20699;SDS011;10511;51.232;9.420;2022-09-29T04:42:48;1.00;;;1.00;;
20699;SDS011;10511;51.232;9.420;2022-09-29T04:45:15;1.10;;;1.10;;
20699;SDS011;10511;51.232;9.420;2022-09-29T04:47:42;1.20;;;1.20;;
20699;SDS011;10511;51.232;9.420;2022-09-29T04:50:10;1.00;;;1.00;;
20699;SDS011;10511;51.232;9.420;2022-09-29T04:52:37;1.10;;;1.10;;
20699;SDS011;10511;51.232;9.420;2022-09-29T04:55:07;1.20;;;1.20;;
20699;SDS011;10511;51.232;9.420;2022-09-29T04:57:36;1.07;;;1.07;;
20699;SDS011;10511;51.232;9.420;2022-09-29T05:00:03;1.10;;;1.10;;
20699;SDS011;10511;51.232;9.420;2022-09-29T05:02:31;1.10;;;1.10;;
20699;SDS011;10511;51.232;9.420;2022-09-29T05:04:59;1.20;;;1.20;;
20699;SDS011;10511;51.232;9.420;2022-09-29T05:07:27;1.10;;;1.10;;
20699;SDS011;10511;51.232;9.420;2022-09-29T05:09:54;1.10;;;1.10;;
20699;SDS011;10511;51.232;9.420;2022-09-29T05:12:21;1.10;;;1.10;;
20699;SDS011;10511;51.232;9.420;2022-09-29T05:14:48;1.00;;;1.00;;
20699;SDS011;10511;51.232;9.420;2022-09-29T05:17:15;1.00;;;1.00;;
20699;SDS011;10511;51.232;9.420;2022-09-29T05:19:42;1.10;;;1.10;;
20699;SDS011;10511;51.232;9.420;2022-09-29T05:22:09;1.10;;;1.10;;
20699;SDS011;10511;51.232;9.420;2022-09-29T05:24:37;1.07;;;1.07;;
20699;SDS011;10511;51.232;9.420;2022-09-29T05:27:04;1.10;;;1.10;;
20699;SDS011;10511;51.232;9.420;2022-09-29T05:29:31;1.10;;;1.10;;
20699;SDS011;10511;51.232;9.420;2022-09-29T05:31:59;1.00;;;1.00;;
20699;SDS011;10511;51.232;9.420;2022-09-29T05:34:26;1.00;;;1.00;;
20699;SDS011;10511;51.232;9.420;2022-09-29T05:36:53;1.00;;;1.00;;
20699;SDS011;10511;51.232;9.420;2022-09-29T05:39:20;1.13;;;1.13;;
20699;SDS011;10511;51.232;9.420;2022-09-29T05:41:48;1.00;;;1.00;;
20699;SDS011;10511;51.232;9.420;2022-09-29T05:44:15;1.10;;;1.10;;
20699;SDS011;10511;51.232;9.420;2022-09-29T05:46:42;1.00;;;1.00;;
20699;SDS011;10511;51.232;9.420;2022-09-29T05:49:10;1.10;;;1.10;;
20699;SDS011;10511;51.232;9.420;2022-09-29T05:51:37;1.00;;;1.00;;
20699;SDS011;10511;51.232;9.420;2022-09-29T05:54:04;1.00;;;1.00;;
20699;SDS011;10511;51.232;9.420;2022-09-29T05:56:31;1.00;;;1.00;;
20699;SDS011;10511;51.232;9.420;2022-09-29T05:58:59;1.00;;;1.00;;
20699;SDS011;10511;51.232;9.420;2022-09-29T06:01:26;1.00;;;1.00;;
20699;SDS011;10511;51.232;9.420;2022-09-29T06:03:53;1.10;;;1.10;;
20699;SDS011;10511;51.232;9.420;2022-09-29T06:06:22;1.00;;;1.00;;
20699;SDS011;10511;51.232;9.420;2022-09-29T06:08:51;1.00;;;1.00;;
20699;SDS011;10511;51.232;9.420;2022-09-29T06:11:19;1.00;;;1.00;;
20699;SDS011;10511;51.232;9.420;2022-09-29T06:13:48;1.00;;;1.00;;
20699;SDS011;10511;51.232;9.420;2022-09-29T06:16:18;1.00;;;1.00;;
20699;SDS011;10511;51.232;9.420;2022-09-29T06:18:46;0.90;;;0.90;;
20699;SDS011;10511;51.232;9.420;2022-09-29T06:21:14;1.10;;;1.10;;
20699;SDS011;10511;51.232;9.420;2022-09-29T06:23:42;1.10;;;1.10;;
20699;SDS011;10511;51.232;9.420;2022-09-29T06:26:11;1.00;;;1.00;;
20699;SDS011;10511;51.232;9.420;2022-09-29T06:28:39;1.20;;;1.20;;
20699;SDS011;10511;51.232;9.420;2022-09-29T06:31:07;1.20;;;1.20;;
20699;SDS011;10511;51.232;9.420;2022-09-29T06:33:38;1.20;;;1.20;;
20699;SDS011;10511;51.232;9.420;2022-09-29T06:36:07;1.10;;;1.10;;
20699;SDS011;10511;51.232;9.420;2022-09-29T06:38:56;1.20;;;1.20;;
20699;SDS011;10511;51.232;9.420;2022-09-29T06:41:23;1.27;;;1.27;;
20699;SDS011;10511;51.232;9.420;2022-09-29T06:43:51;1.10;;;1.10;;
20699;SDS011;10511;51.232;9.420;2022-09-29T06:46:18;1.10;;;1.10;;
20699;SDS011;10511;51.232;9.420;2022-09-29T06:48:46;1.10;;;1.10;;
20699;SDS011;10511;51.232;9.420;2022-09-29T06:51:13;1.10;;;1.10;;
20699;SDS011;10511;51.232;9.420;2022-09-29T06:53:40;1.00;;;1.00;;
20699;SDS011;10511;51.232;9.420;2022-09-29T06:56:07;1.10;;;1.10;;
20699;SDS011;10511;51.232;9.420;2022-09-29T06:58:35;1.10;;;1.10;;
20699;SDS011;10511;51.232;9.420;2022-09-29T07:01:02;1.10;;;1.10;;
20699;SDS011;10511;51.232;9.420;2022-09-29T07:03:30;1.10;;;1.10;;
20699;SDS011;10511;51.232;9.420;2022-09-29T07:06:02;1.00;;;1.00;;
20699;SDS011;10511;51.232;9.420;2022-09-29T07:08:29;1.10;;;1.10;;
20699;SDS011;10511;51.232;9.420;2022-09-29T07:10:59;1.10;;;1.10;;
20699;SDS011;10511;51.232;9.420;2022-09-29T07:13:27;1.10;;;1.10;;
20699;SDS011;10511;51.232;9.420;2022-09-29T07:15:54;1.10;;;1.10;;
20699;SDS011;10511;51.232;9.420;2022-09-29T07:18:21;1.10;;;1.10;;
20699;SDS011;10511;51.232;9.420;2022-09-29T07:20:48;1.10;;;1.10;;
20699;SDS011;10511;51.232;9.420;2022-09-29T07:23:16;1.10;;;1.10;;
20699;SDS011;10511;51.232;9.420;2022-09-29T07:25:44;1.10;;;1.10;;
20699;SDS011;10511;51.232;9.420;2022-09-29T07:28:12;1.20;;;1.20;;
20699;SDS011;10511;51.232;9.420;2022-09-29T07:30:39;1.20;;;1.20;;
20699;SDS011;10511;51.232;9.420;2022-09-29T07:33:06;1.20;;;1.20;;
20699;SDS011;10511;51.232;9.420;2022-09-29T07:35:33;1.10;;;1.10;;
20699;SDS011;10511;51.232;9.420;2022-09-29T07:38:00;1.10;;;1.10;;
20699;SDS011;10511;51.232;9.420;2022-09-29T07:40:28;1.00;;;1.00;;
20699;SDS011;10511;51.232;9.420;2022-09-29T07:42:55;1.00;;;1.00;;
20699;SDS011;10511;51.232;9.420;2022-09-29T07:45:24;1.10;;;1.10;;
20699;SDS011;10511;51.232;9.420;2022-09-29T07:47:51;1.00;;;1.00;;
20699;SDS011;10511;51.232;9.420;2022-09-29T07:50:21;1.13;;;1.13;;
20699;SDS011;10511;51.232;9.420;2022-09-29T07:52:48;1.00;;;1.00;;
20699;SDS011;10511;51.232;9.420;2022-09-29T07:55:16;1.00;;;1.00;;
20699;SDS011;10511;51.232;9.420;2022-09-29T07:57:47;1.00;;;1.00;;
20699;SDS011;10511;51.232;9.420;2022-09-29T08:00:14;1.10;;;1.10;;
20699;SDS011;10511;51.232;9.420;2022-09-29T08:02:41;1.00;;;1.00;;
20699;SDS011;10511;51.232;9.420;2022-09-29T08:05:09;1.00;;;1.00;;
20699;SDS011;10511;51.232;9.420;2022-09-29T08:07:37;1.00;;;1.00;;
20699;SDS011;10511;51.232;9.420;2022-09-29T08:10:04;1.00;;;1.00;;
20699;SDS011;10511;51.232;9.420;2022-09-29T08:12:32;1.00;;;1.00;;
20699;SDS011;10511;51.232;9.420;2022-09-29T08:15:00;1.10;;;1.10;;
20699;SDS011;10511;51.232;9.420;2022-09-29T08:17:27;1.00;;;1.00;;
20699;SDS011;10511;51.232;9.420;2022-09-29T08:19:54;1.00;;;1.00;;
20699;SDS011;10511;51.232;9.420;2022-09-29T08:22:21;1.00;;;1.00;;
20699;SDS011;10511;51.232;9.420;2022-09-29T08:24:48;1.00;;;1.00;;
20699;SDS011;10511;51.232;9.420;2022-09-29T08:27:15;1.00;;;1.00;;
20699;SDS011;10511;51.232;9.420;2022-09-29T08:29:42;1.00;;;1.00;;
20699;SDS011;10511;51.232;9.420;2022-09-29T08:32:10;1.00;;;1.00;;
20699;SDS011;10511;51.232;9.420;2022-09-29T08:34:38;1.00;;;1.00;;
20699;SDS011;10511;51.232;9.420;2022-09-29T08:37:05;1.00;;;1.00;;
20699;SDS011;10511;51.232;9.420;2022-09-29T08:39:32;1.10;;;1.10;;
20699;SDS011;10511;51.232;9.420;2022-09-29T08:42:01;1.00;;;1.00;;
20699;SDS011;10511;51.232;9.420;2022-09-29T08:44:37;1.00;;;1.00;;
20699;SDS011;10511;51.232;9.420;2022-09-29T08:47:17;1.00;;;1.00;;
20699;SDS011;10511;51.232;9.420;2022-09-29T08:49:51;1.00;;;1.00;;
20699;SDS011;10511;51.232;9.420;2022-09-29T08:52:21;1.00;;;1.00;;
20699;SDS011;10511;51.232;9.420;2022-09-29T08:54:52;0.90;;;0.90;;
20699;SDS011;10511;51.232;9.420;2022-09-29T08:57:24;0.93;;;0.93;;
20699;SDS011;10511;51.232;9.420;2022-09-29T08:59:52;1.00;;;1.00;;
20699;SDS011;10511;51.232;9.420;2022-09-29T09:02:42;0.97;;;0.97;;
20699;SDS011;10511;51.232;9.420;2022-09-29T09:05:27;1.00;;;1.00;;
20699;SDS011;10511;51.232;9.420;2022-09-29T09:08:14;1.00;;;1.00;;
20699;SDS011;10511;51.232;9.420;2022-09-29T09:10:49;1.00;;;1.00;;
20699;SDS011;10511;51.232;9.420;2022-09-29T09:13:29;1.07;;;1.07;;
20699;SDS011;10511;51.232;9.420;2022-09-29T09:16:15;1.00;;;1.00;;
20699;SDS011;10511;51.232;9.420;2022-09-29T09:19:02;1.00;;;1.00;;
20699;SDS011;10511;51.232;9.420;2022-09-29T09:21:54;1.00;;;1.00;;
20699;SDS011;10511;51.232;9.420;2022-09-29T09:24:32;1.00;;;1.00;;
20699;SDS011;10511;51.232;9.420;2022-09-29T09:27:07;1.10;;;1.10;;
20699;SDS011;10511;51.232;9.420;2022-09-29T09:29:38;1.00;;;1.00;;
20699;SDS011;10511;51.232;9.420;2022-09-29T09:32:08;1.00;;;1.00;;
20699;SDS011;10511;51.232;9.420;2022-09-29T09:34:41;1.00;;;1.00;;
20699;SDS011;10511;51.232;9.420;2022-09-29T09:37:15;1.00;;;1.00;;
20699;SDS011;10511;51.232;9.420;2022-09-29T09:39:47;1.00;;;1.00;;
20699;SDS011;10511;51.232;9.420;2022-09-29T09:42:18;1.00;;;1.00;;
20699;SDS011;10511;51.232;9.420;2022-09-29T09:44:51;0.97;;;0.97;;
20699;SDS011;10511;51.232;9.420;2022-09-29T09:47:22;1.00;;;1.00;;
20699;SDS011;10511;51.232;9.420;2022-09-29T09:49:53;1.00;;;1.00;;
20699;SDS011;10511;51.232;9.420;2022-09-29T09:52:23;1.00;;;1.00;;
20699;SDS011;10511;51.232;9.420;2022-09-29T09:54:57;0.90;;;0.90;;
20699;SDS011;10511;51.232;9.420;2022-09-29T09:57:31;1.00;;;1.00;;
20699;SDS011;10511;51.232;9.420;2022-09-29T10:00:14;0.90;;;0.90;;
20699;SDS011;10511;51.232;9.420;2022-09-29T10:02:45;0.90;;;0.90;;
20699;SDS011;10511;51.232;9.420;2022-09-29T10:05:16;0.90;;;0.90;;
20699;SDS011;10511;51.232;9.420;2022-09-29T10:07:45;0.90;;;0.90;;
20699;SDS011;10511;51.232;9.420;2022-09-29T10:10:15;0.90;;;0.90;;
20699;SDS011;10511;51.232;9.420;2022-09-29T10:12:44;0.90;;;0.90;;
20699;SDS011;10511;51.232;9.420;2022-09-29T10:15:14;0.90;;;0.90;;
20699;SDS011;10511;51.232;9.420;2022-09-29T10:17:45;0.90;;;0.90;;
20699;SDS011;10511;51.232;9.420;2022-09-29T10:20:30;0.90;;;0.90;;
20699;SDS011;10511;51.232;9.420;2022-09-29T10:23:18;0.90;;;0.90;;
20699;SDS011;10511;51.232;9.420;2022-09-29T10:25:54;0.93;;;0.93;;
20699;SDS011;10511;51.232;9.420;2022-09-29T10:28:24;0.90;;;0.90;;
20699;SDS011;10511;51.232;9.420;2022-09-29T10:30:55;0.90;;;0.90;;
20699;SDS011;10511;51.232;9.420;2022-09-29T10:33:23;0.80;;;0.80;;
20699;SDS011;10511;51.232;9.420;2022-09-29T10:36:03;0.90;;;0.90;;
20699;SDS011;10511;51.232;9.420;2022-09-29T10:38:33;0.90;;;0.90;;
20699;SDS011;10511;51.232;9.420;2022-09-29T10:41:03;0.80;;;0.80;;
20699;SDS011;10511;51.232;9.420;2022-09-29T10:43:33;0.83;;;0.83;;
20699;SDS011;10511;51.232;9.420;2022-09-29T10:46:02;0.80;;;0.80;;
20699;SDS011;10511;51.232;9.420;2022-09-29T10:48:30;0.80;;;0.80;;
20699;SDS011;10511;51.232;9.420;2022-09-29T10:50:58;0.90;;;0.90;;
20699;SDS011;10511;51.232;9.420;2022-09-29T10:53:33;0.90;;;0.90;;
20699;SDS011;10511;51.232;9.420;2022-09-29T10:56:04;0.80;;;0.80;;
20699;SDS011;10511;51.232;9.420;2022-09-29T10:58:40;0.90;;;0.90;;
20699;SDS011;10511;51.232;9.420;2022-09-29T11:01:10;0.80;;;0.80;;
20699;SDS011;10511;51.232;9.420;2022-09-29T11:03:39;0.80;;;0.80;;
20699;SDS011;10511;51.232;9.420;2022-09-29T11:06:13;0.97;;;0.97;;
20699;SDS011;10511;51.232;9.420;2022-09-29T11:08:55;0.80;;;0.80;;
20699;SDS011;10511;51.232;9.420;2022-09-29T11:11:24;0.80;;;0.80;;
20699;SDS011;10511;51.232;9.420;2022-09-29T11:13:53;0.80;;;0.80;;
20699;SDS011;10511;51.232;9.420;2022-09-29T11:16:26;0.80;;;0.80;;
20699;SDS011;10511;51.232;9.420;2022-09-29T11:18:56;0.80;;;0.80;;
20699;SDS011;10511;51.232;9.420;2022-09-29T11:21:47;0.80;;;0.80;;
20699;SDS011;10511;51.232;9.420;2022-09-29T11:24:43;0.90;;;0.90;;
20699;SDS011;10511;51.232;9.420;2022-09-29T11:27:33;0.80;;;0.80;;
20699;SDS011;10511;51.232;9.420;2022-09-29T11:30:16;0.70;;;0.70;;
20699;SDS011;10511;51.232;9.420;2022-09-29T11:32:53;0.80;;;0.80;;
20699;SDS011;10511;51.232;9.420;2022-09-29T11:35:35;0.70;;;0.70;;
20699;SDS011;10511;51.232;9.420;2022-09-29T11:38:23;0.73;;;0.73;;
20699;SDS011;10511;51.232;9.420;2022-09-29T11:41:22;0.73;;;0.73;;
20699;SDS011;10511;51.232;9.420;2022-09-29T11:44:07;0.80;;;0.80;;
20699;SDS011;10511;51.232;9.420;2022-09-29T11:46:48;0.70;;;0.70;;
20699;SDS011;10511;51.232;9.420;2022-09-29T11:49:39;0.90;;;0.90;;
20699;SDS011;10511;51.232;9.420;2022-09-29T11:55:18;0.80;;;0.80;;
20699;SDS011;10511;51.232;9.420;2022-09-29T11:58:07;0.70;;;0.70;;
20699;SDS011;10511;51.232;9.420;2022-09-29T12:00:49;0.70;;;0.70;;
20699;SDS011;10511;51.232;9.420;2022-09-29T12:03:30;0.80;;;0.80;;
20699;SDS011;10511;51.232;9.420;2022-09-29T12:09:19;0.70;;;0.70;;
20699;SDS011;10511;51.232;9.420;2022-09-29T12:12:07;0.70;;;0.70;;
20699;SDS011;10511;51.232;9.420;2022-09-29T12:14:49;0.77;;;0.77;;
20699;SDS011;10511;51.232;9.420;2022-09-29T12:17:31;0.70;;;0.70;;
20699;SDS011;10511;51.232;9.420;2022-09-29T12:20:02;0.70;;;0.70;;
20699;SDS011;10511;51.232;9.420;2022-09-29T12:22:32;0.70;;;0.70;;
20699;SDS011;10511;51.232;9.420;2022-09-29T12:25:00;0.70;;;0.70;;
20699;SDS011;10511;51.232;9.420;2022-09-29T12:27:33;0.70;;;0.70;;
20699;SDS011;10511;51.232;9.420;2022-09-29T12:30:08;0.70;;;0.70;;
20699;SDS011;10511;51.232;9.420;2022-09-29T12:32:41;0.70;;;0.70;;
20699;SDS011;10511;51.232;9.420;2022-09-29T12:35:16;0.80;;;0.80;;
20699;SDS011;10511;51.232;9.420;2022-09-29T12:37:50;0.70;;;0.70;;
20699;SDS011;10511;51.232;9.420;2022-09-29T12:40:23;0.70;;;0.70;;
20699;SDS011;10511;51.232;9.420;2022-09-29T12:43:01;0.77;;;0.77;;
20699;SDS011;10511;51.232;9.420;2022-09-29T12:45:39;0.70;;;0.70;;
20699;SDS011;10511;51.232;9.420;2022-09-29T12:48:23;0.70;;;0.70;;
20699;SDS011;10511;51.232;9.420;2022-09-29T12:50:59;0.70;;;0.70;;
20699;SDS011;10511;51.232;9.420;2022-09-29T12:53:30;0.70;;;0.70;;
20699;SDS011;10511;51.232;9.420;2022-09-29T12:56:00;0.77;;;0.77;;
20699;SDS011;10511;51.232;9.420;2022-09-29T12:58:34;0.70;;;0.70;;
20699;SDS011;10511;51.232;9.420;2022-09-29T13:01:18;0.70;;;0.70;;
20699;SDS011;10511;51.232;9.420;2022-09-29T13:06:57;0.70;;;0.70;;
20699;SDS011;10511;51.232;9.420;2022-09-29T13:09:48;0.80;;;0.80;;
20699;SDS011;10511;51.232;9.420;2022-09-29T13:12:32;0.70;;;0.70;;
20699;SDS011;10511;51.232;9.420;2022-09-29T13:18:20;0.70;;;0.70;;
20699;SDS011;10511;51.232;9.420;2022-09-29T13:21:06;0.70;;;0.70;;
20699;SDS011;10511;51.232;9.420;2022-09-29T13:23:50;0.70;;;0.70;;
20699;SDS011;10511;51.232;9.420;2022-09-29T13:26:38;0.70;;;0.70;;
20699;SDS011;10511;51.232;9.420;2022-09-29T13:29:24;0.77;;;0.77;;
20699;SDS011;10511;51.232;9.420;2022-09-29T13:31:53;0.70;;;0.70;;
20699;SDS011;10511;51.232;9.420;2022-09-29T13:34:26;0.70;;;0.70;;
20699;SDS011;10511;51.232;9.420;2022-09-29T13:37:03;0.80;;;0.80;;
20699;SDS011;10511;51.232;9.420;2022-09-29T13:39:34;0.70;;;0.70;;
20699;SDS011;10511;51.232;9.420;2022-09-29T13:42:25;0.77;;;0.77;;
20699;SDS011;10511;51.232;9.420;2022-09-29T13:45:13;0.77;;;0.77;;
20699;SDS011;10511;51.232;9.420;2022-09-29T13:47:43;0.70;;;0.70;;
20699;SDS011;10511;51.232;9.420;2022-09-29T13:53:25;0.80;;;0.80;;
20699;SDS011;10511;51.232;9.420;2022-09-29T13:55:53;0.80;;;0.80;;
20699;SDS011;10511;51.232;9.420;2022-09-29T13:58:22;0.80;;;0.80;;
20699;SDS011;10511;51.232;9.420;2022-09-29T14:00:50;0.80;;;0.80;;
20699;SDS011;10511;51.232;9.420;2022-09-29T14:03:25;0.80;;;0.80;;
20699;SDS011;10511;51.232;9.420;2022-09-29T14:08:44;0.80;;;0.80;;
20699;SDS011;10511;51.232;9.420;2022-09-29T14:11:20;0.80;;;0.80;;
20699;SDS011;10511;51.232;9.420;2022-09-29T14:13:55;0.80;;;0.80;;
20699;SDS011;10511;51.232;9.420;2022-09-29T14:16:36;0.80;;;0.80;;
20699;SDS011;10511;51.232;9.420;2022-09-29T14:19:18;0.90;;;0.90;;
20699;SDS011;10511;51.232;9.420;2022-09-29T14:22:01;0.90;;;0.90;;
20699;SDS011;10511;51.232;9.420;2022-09-29T14:24:44;0.80;;;0.80;;
20699;SDS011;10511;51.232;9.420;2022-09-29T14:27:25;0.80;;;0.80;;
20699;SDS011;10511;51.232;9.420;2022-09-29T14:30:05;0.80;;;0.80;;
20699;SDS011;10511;51.232;9.420;2022-09-29T14:32:41;0.80;;;0.80;;
20699;SDS011;10511;51.232;9.420;2022-09-29T14:35:14;0.80;;;0.80;;
20699;SDS011;10511;51.232;9.420;2022-09-29T14:37:48;0.70;;;0.70;;
20699;SDS011;10511;51.232;9.420;2022-09-29T14:40:23;0.80;;;0.80;;
20699;SDS011;10511;51.232;9.420;2022-09-29T14:43:01;0.80;;;0.80;;
20699;SDS011;10511;51.232;9.420;2022-09-29T14:45:36;0.80;;;0.80;;
20699;SDS011;10511;51.232;9.420;2022-09-29T14:48:46;0.90;;;0.90;;
20699;SDS011;10511;51.232;9.420;2022-09-29T14:51:42;0.80;;;0.80;;
20699;SDS011;10511;51.232;9.420;2022-09-29T14:54:31;0.70;;;0.70;;
20699;SDS011;10511;51.232;9.420;2022-09-29T14:57:07;0.80;;;0.80;;
20699;SDS011;10511;51.232;9.420;2022-09-29T14:59:51;0.70;;;0.70;;
20699;SDS011;10511;51.232;9.420;2022-09-29T15:02:27;0.90;;;0.90;;
20699;SDS011;10511;51.232;9.420;2022-09-29T15:04:54;0.80;;;0.80;;
20699;SDS011;10511;51.232;9.420;2022-09-29T15:07:22;0.87;;;0.87;;
20699;SDS011;10511;51.232;9.420;2022-09-29T15:09:53;0.80;;;0.80;;
20699;SDS011;10511;51.232;9.420;2022-09-29T15:12:22;0.80;;;0.80;;
20699;SDS011;10511;51.232;9.420;2022-09-29T15:14:51;0.80;;;0.80;;
20699;SDS011;10511;51.232;9.420;2022-09-29T15:17:26;0.80;;;0.80;;
20699;SDS011;10511;51.232;9.420;2022-09-29T15:20:03;0.80;;;0.80;;
20699;SDS011;10511;51.232;9.420;2022-09-29T15:25:30;0.80;;;0.80;;
20699;SDS011;10511;51.232;9.420;2022-09-29T15:28:00;0.80;;;0.80;;
20699;SDS011;10511;51.232;9.420;2022-09-29T15:30:29;0.80;;;0.80;;
20699;SDS011;10511;51.232;9.420;2022-09-29T15:33:08;0.80;;;0.80;;
20699;SDS011;10511;51.232;9.420;2022-09-29T15:35:44;0.70;;;0.70;;
20699;SDS011;10511;51.232;9.420;2022-09-29T15:38:15;0.80;;;0.80;;
20699;SDS011;10511;51.232;9.420;2022-09-29T15:41:00;0.80;;;0.80;;
20699;SDS011;10511;51.232;9.420;2022-09-29T15:43:32;0.80;;;0.80;;
20699;SDS011;10511;51.232;9.420;2022-09-29T15:46:14;0.70;;;0.70;;
20699;SDS011;10511;51.232;9.420;2022-09-29T15:48:56;0.80;;;0.80;;
20699;SDS011;10511;51.232;9.420;2022-09-29T15:51:32;0.70;;;0.70;;